Alexander Maersk — OZRC2 — position and weather

sailwx.info

Track history (hours):
 
Tides and Currents Weather Stations Pressure Air Temp Water Temp Dewpoint Dewpoint Depression Visibility Wind Speed Wind Dir Waves Ship Positions

Alexander Maersk

Last reported at 2017-Mar-19 21:32 UTC. Time now 2017-Mar-23 12:34 UTC.
Position N 33°14' E 013°19'.

Length 155 m; draft 9.5 m.

Type: Cargo ship. MMSI: 219470000.

Date/timePositionNaut miles runAvg speedWind from/ knotsBaromVisibWave heightAir tempDewpointWater temp
2017-Mar-19 21:32N 33°14' E 013°19'19 9.0
2017-Mar-19 19:28N 33°07' E 013°40'  
2017-Mar-13 09:26N 32°27' E 015°16'0 0.5
2017-Mar-13 08:34N 32°27' E 015°16'195 6.1
2017-Mar-12 00:32N 35°38' E 014°37'11 1.1
2017-Mar-11 14:12N 35°49' E 014°32'0 0.0
2017-Mar-11 13:30N 35°49' E 014°32'0 0.0
2017-Mar-11 12:33N 35°49' E 014°32'0 0.0
2017-Mar-11 10:18N 35°49' E 014°32'0 0.0
2017-Mar-11 06:33N 35°49' E 014°32'0 0.0
2017-Mar-11 05:27N 35°49' E 014°32'0 0.0
2017-Mar-10 16:33N 35°49' E 014°32'0 0.0
2017-Mar-10 15:24N 35°49' E 014°32'0 0.0
2017-Mar-10 14:30N 35°49' E 014°32'0 0.0
2017-Mar-10 13:30N 35°49' E 014°32'0 0.0
2017-Mar-10 12:33N 35°49' E 014°32'0 0.0
2017-Mar-10 11:30N 35°49' E 014°32'0 0.0
2017-Mar-10 10:33N 35°49' E 014°32'0 0.1
2017-Mar-10 09:10N 35°49' E 014°32'3 4.4
2017-Mar-10 08:30N 35°48' E 014°36'4 4.6
2017-Mar-10 07:33N 35°50' E 014°41'0 0.4
2017-Mar-10 06:31N 35°50' E 014°41'0 0.0
2017-Mar-10 05:31N 35°50' E 014°41'0 0.0
2017-Mar-10 04:31N 35°50' E 014°41'0 0.1
2017-Mar-10 03:31N 35°50' E 014°41'0 0.0
2017-Mar-10 02:28N 35°50' E 014°41'0 0.1
2017-Mar-10 01:31N 35°50' E 014°41'0 0.0
2017-Mar-10 00:28N 35°50' E 014°41'0 0.0
2017-Mar-09 23:28N 35°50' E 014°41'0 0.0
2017-Mar-09 22:31N 35°50' E 014°41'  
Track history (hours):
 
Tides and Currents Weather Stations Pressure Air Temp Water Temp Dewpoint Dewpoint Depression Visibility Wind Speed Wind Dir Waves Ship Positions

Alexander Maersk

Last reported at 2017-Mar-19 21:32 UTC. Time now 2017-Mar-23 12:34 UTC.
Position N 33°14' E 013°19'.

Length 155 m; draft 9.5 m.

Type: Cargo ship. MMSI: 219470000.

Date/timePositionNaut miles runAvg speedWind from/ knotsBaromVisibWave heightAir tempDewpointWater temp
2017-Mar-19 21:32N 33°14' E 013°19'19 9.0
2017-Mar-19 19:28N 33°07' E 013°40'  
2017-Mar-13 09:26N 32°27' E 015°16'0 0.5
2017-Mar-13 08:34N 32°27' E 015°16'195 6.1
2017-Mar-12 00:32N 35°38' E 014°37'11 1.1
2017-Mar-11 14:12N 35°49' E 014°32'0 0.0
2017-Mar-11 13:30N 35°49' E 014°32'0 0.0
2017-Mar-11 12:33N 35°49' E 014°32'0 0.0
2017-Mar-11 10:18N 35°49' E 014°32'0 0.0
2017-Mar-11 06:33N 35°49' E 014°32'0 0.0
2017-Mar-11 05:27N 35°49' E 014°32'0 0.0
2017-Mar-10 16:33N 35°49' E 014°32'0 0.0
2017-Mar-10 15:24N 35°49' E 014°32'0 0.0
2017-Mar-10 14:30N 35°49' E 014°32'0 0.0
2017-Mar-10 13:30N 35°49' E 014°32'0 0.0
2017-Mar-10 12:33N 35°49' E 014°32'0 0.0
2017-Mar-10 11:30N 35°49' E 014°32'0 0.0
2017-Mar-10 10:33N 35°49' E 014°32'0 0.1
2017-Mar-10 09:10N 35°49' E 014°32'3 4.4
2017-Mar-10 08:30N 35°48' E 014°36'4 4.6
2017-Mar-10 07:33N 35°50' E 014°41'0 0.4
2017-Mar-10 06:31N 35°50' E 014°41'0 0.0
2017-Mar-10 05:31N 35°50' E 014°41'0 0.0
2017-Mar-10 04:31N 35°50' E 014°41'0 0.1
2017-Mar-10 03:31N 35°50' E 014°41'0 0.0
2017-Mar-10 02:28N 35°50' E 014°41'0 0.1
2017-Mar-10 01:31N 35°50' E 014°41'0 0.0
2017-Mar-10 00:28N 35°50' E 014°41'0 0.0
2017-Mar-09 23:28N 35°50' E 014°41'0 0.0
2017-Mar-09 22:31N 35°50' E 014°41'  

Dump ship's entire track history